Time;durP1;ratioP1;P1;durP2;ratioP2;P2;SDS_P1;SDS_P2;PMS_P1;PMS_P2;Temp;Humidity;BMP_temperature;BMP_pressure;BME280_temperature;BME280_humidity;BME280_pressure;Samples;Min_cycle;Max_cycle;Signal;HPM_P1;HPM_P2
2022/03/09 00:11:01;;;;;;;69.93;28.38;;;;;;;3.46;71.60;101114.61;713209;1177;114858;-79
2022/03/09 00:26:03;;;;;;;217.00;62.53;;;;;;;3.26;71.64;101107.70;712978;1175;115614;-79
2022/03/09 00:41:07;;;;;;;173.73;49.17;;;;;;;2.93;71.05;101103.08;713003;1175;115607;-79
2022/03/09 00:56:10;;;;;;;109.68;38.15;;;;;;;2.66;71.87;101087.80;712929;1174;115036;-79
2022/03/09 01:11:14;;;;;;;145.08;47.95;;;;;;;2.41;72.36;101077.63;712731;1174;115060;-79
2022/03/09 01:26:17;;;;;;;162.23;47.00;;;;;;;2.23;72.64;101087.84;713230;1174;115743;-79
2022/03/09 01:41:22;;;;;;;134.20;42.50;;;;;;;1.97;72.78;101079.35;712989;1174;115844;-80
2022/03/09 01:56:27;;;;;;;103.40;37.30;;;;;;;1.88;72.83;101078.88;713120;1177;115790;-80
2022/03/09 02:11:32;;;;;;;95.80;36.63;;;;;;;1.60;73.05;101090.30;713019;1175;116087;-79
2022/03/09 02:26:35;;;;;;;126.53;45.50;;;;;;;1.54;73.25;101093.09;712962;1174;115186;-78
2022/03/09 02:41:39;;;;;;;156.20;47.15;;;;;;;1.39;73.91;101087.59;713132;1177;116285;-78
2022/03/09 02:56:43;;;;;;;232.80;66.67;;;;;;;1.24;74.09;101101.07;713043;1175;115258;-76
2022/03/09 03:11:45;;;;;;;157.25;53.53;;;;;;;1.08;73.37;101088.72;713063;1175;116169;-81
2022/03/09 03:26:47;;;;;;;287.37;94.73;;;;;;;0.95;74.04;101090.88;713327;1176;116236;-80
2022/03/09 03:41:50;;;;;;;224.03;71.87;;;;;;;0.82;74.82;101090.46;712945;1175;116034;-78
2022/03/09 03:56:52;;;;;;;170.00;59.60;;;;;;;0.67;73.27;101098.72;713103;1174;115215;-80
2022/03/09 04:11:54;;;;;;;145.33;52.97;;;;;;;0.56;74.00;101096.50;713145;1177;117193;-77
2022/03/09 04:26:56;;;;;;;157.83;48.37;;;;;;;0.45;73.90;101098.59;712977;1177;115100;-77
2022/03/09 04:41:58;;;;;;;500.63;121.57;;;;;;;0.39;73.75;101094.48;712795;1175;114564;-77
2022/03/09 04:57:00;;;;;;;181.45;54.10;;;;;;;0.26;72.94;101099.19;712881;1177;115518;-76
2022/03/09 05:12:03;;;;;;;199.98;58.03;;;;;;;0.15;74.41;101122.76;713321;1175;115941;-73
2022/03/09 05:27:08;;;;;;;225.23;66.03;;;;;;;0.21;74.16;101131.20;713473;1175;115817;-76
2022/03/09 05:42:13;;;;;;;458.50;109.37;;;;;;;0.32;73.69;101139.47;713150;1174;116248;-71
2022/03/09 05:57:21;;;;;;;200.17;67.83;;;;;;;0.24;74.58;101172.39;713191;1174;114964;-71
2022/03/09 06:12:23;;;;;;;;;;;;;;;0.63;75.01;101154.83;713045;1174;115292;-84
2022/03/09 06:27:25;;;;;;;280.50;88.13;;;;;;;1.19;75.83;101162.42;713734;1176;101455;-84
2022/03/09 06:42:29;;;;;;;160.28;50.70;;;;;;;2.26;77.37;101167.14;713296;1177;115157;-72
2022/03/09 06:57:34;;;;;;;85.30;31.30;;;;;;;3.48;76.01;101181.09;712931;1176;114938;-79
2022/03/09 07:12:42;;;;;;;130.88;46.15;;;;;;;3.89;75.49;101205.25;713250;1174;115904;-80
2022/03/09 07:27:44;;;;;;;55.28;24.93;;;;;;;4.06;75.15;101210.50;713154;1174;115367;-80
2022/03/09 07:42:47;;;;;;;76.53;32.40;;;;;;;3.99;75.98;101207.34;713316;1175;115514;-79
2022/03/09 07:57:49;;;;;;;61.23;26.85;;;;;;;4.05;76.84;101208.84;713392;1174;115129;-75
2022/03/09 08:12:52;;;;;;;76.93;31.25;;;;;;;4.03;75.68;101218.44;713388;1175;115316;-75
2022/03/09 08:28:01;;;;;;;76.10;29.80;;;;;;;4.76;76.79;101223.66;713181;1176;116212;-75
2022/03/09 08:43:04;;;;;;;103.10;44.23;;;;;;;6.36;75.82;101213.73;713126;1176;115770;-76
2022/03/09 08:58:07;;;;;;;42.37;20.27;;;;;;;8.02;74.39;101217.09;713558;1176;115258;-75
2022/03/09 09:13:10;;;;;;;61.05;25.90;;;;;;;9.41;72.52;101224.64;714113;1177;114250;-76
2022/03/09 09:28:14;;;;;;;51.85;23.68;;;;;;;9.52;68.95;101220.45;713317;1174;115717;-77
2022/03/09 09:43:16;;;;;;;260.50;87.60;;;;;;;10.82;67.44;101220.81;713395;1175;115399;-76
2022/03/09 09:58:20;;;;;;;127.45;47.50;;;;;;;10.82;65.37;101228.69;713342;1175;115689;-75
2022/03/09 10:13:33;;;;;;;71.43;34.38;;;;;;;12.17;65.07;101235.98;713399;1176;115483;-75
2022/03/09 10:28:53;;;;;;;39.03;22.65;;;;;;;13.05;62.52;101242.02;713397;1174;115279;-73
2022/03/09 10:43:55;;;;;;;29.65;16.38;;;;;;;13.12;60.32;101241.39;713359;1174;115909;-73
2022/03/09 10:59:09;;;;;;;45.35;22.75;;;;;;;13.84;60.23;101216.94;713240;1175;116027;-75
2022/03/09 11:14:14;;;;;;;31.60;18.73;;;;;;;13.36;59.56;101215.75;713448;1175;116238;-79
2022/03/09 11:29:35;;;;;;;30.77;14.77;;;;;;;13.94;59.45;101231.00;714247;1177;116012;-80
2022/03/09 11:44:39;;;;;;;28.93;14.25;;;;;;;15.03;58.32;101235.42;713988;1174;115305;-80
2022/03/09 12:00:09;;;;;;;24.78;12.95;;;;;;;15.26;56.36;101236.77;713465;1175;115368;-79
2022/03/09 12:15:14;;;;;;;61.93;27.57;;;;;;;15.55;56.46;101230.56;713493;1174;115478;-79
2022/03/09 12:30:39;;;;;;;55.80;23.43;;;;;;;16.24;56.18;101236.36;713507;1176;115624;-80
2022/03/09 12:46:08;;;;;;;13.88;6.80;;;;;;;17.57;53.33;101251.53;713789;1177;115911;-77
2022/03/09 13:01:15;;;;;;;16.77;7.23;;;;;;;17.32;51.93;101264.65;714106;1177;114533;-75
2022/03/09 13:16:18;;;;;;;17.08;9.08;;;;;;;17.30;51.98;101269.26;713846;1175;116016;-79
2022/03/09 13:31:21;;;;;;;17.85;9.50;;;;;;;18.89;51.65;101265.23;713556;1177;116658;-74
2022/03/09 13:46:24;;;;;;;28.28;12.40;;;;;;;20.67;50.59;101256.92;713410;1175;115913;-74
2022/03/09 14:01:32;;;;;;;23.35;11.50;;;;;;;18.42;49.50;101240.92;713566;1175;115304;-73
2022/03/09 14:16:46;;;;;;;29.93;9.70;;;;;;;20.23;49.44;101258.39;713949;1174;115537;-76
2022/03/09 14:31:50;;;;;;;91.45;30.15;;;;;;;19.36;47.90;101266.33;713930;1174;115822;-75
2022/03/09 14:46:55;;;;;;;43.63;16.53;;;;;;;28.08;46.48;101266.34;715447;1175;114662;-82
2022/03/09 15:01:59;;;;;;;37.78;18.20;;;;;;;19.78;45.62;101271.38;715088;1177;114713;-82
2022/03/09 15:17:03;;;;;;;21.90;9.13;;;;;;;16.80;49.20;101268.86;714727;1175;116252;-81
2022/03/09 15:32:07;;;;;;;33.60;15.73;;;;;;;17.84;49.74;101279.67;715006;1175;118264;-72
2022/03/09 15:47:09;;;;;;;86.00;29.53;;;;;;;14.47;52.12;101288.75;713823;1174;116117;-73
2022/03/09 16:02:13;;;;;;;121.27;40.93;;;;;;;14.61;54.43;101305.19;713643;1174;115387;-73
2022/03/09 16:17:17;;;;;;;45.93;19.43;;;;;;;13.03;55.14;101317.72;713396;1174;115478;-78
2022/03/09 16:32:25;;;;;;;59.30;25.18;;;;;;;11.72;56.95;101340.20;714248;1174;114599;-78
2022/03/09 16:47:27;;;;;;;83.65;30.48;;;;;;;11.25;58.46;101355.12;713841;1174;115149;-73
2022/03/09 17:02:29;;;;;;;67.00;27.37;;;;;;;10.98;60.30;101382.45;713487;1175;114522;-74
2022/03/09 17:17:36;;;;;;;66.40;25.10;;;;;;;10.68;61.59;101399.45;713481;1177;115659;-72
2022/03/09 17:32:39;;;;;;;94.77;29.03;;;;;;;10.48;62.24;101419.22;713526;1174;115682;-72
2022/03/09 17:47:43;;;;;;;127.43;43.78;;;;;;;9.73;63.68;101449.55;713555;1175;114555;-72
2022/03/09 18:02:45;;;;;;;56.48;26.98;;;;;;;9.15;65.27;101469.88;713608;1177;115948;-72
2022/03/09 18:17:48;;;;;;;104.25;41.55;;;;;;;8.82;66.89;101503.27;713647;1174;115543;-72
2022/03/09 18:32:51;;;;;;;50.37;25.70;;;;;;;8.60;67.11;101510.75;713522;1174;114957;-72
2022/03/09 18:47:54;;;;;;;58.83;28.00;;;;;;;8.50;67.74;101536.63;714244;1174;115859;-72
2022/03/09 19:02:56;;;;;;;46.23;24.57;;;;;;;8.19;68.39;101554.06;714167;1174;115335;-72
2022/03/09 19:17:58;;;;;;;24.10;13.45;;;;;;;7.65;69.54;101575.39;713581;1177;116926;-73
2022/03/09 19:33:02;;;;;;;35.80;17.75;;;;;;;7.21;70.75;101599.54;713841;1177;115497;-73
2022/03/09 19:48:04;;;;;;;45.27;25.30;;;;;;;7.16;71.29;101631.09;713505;1174;115411;-77
2022/03/09 20:03:07;;;;;;;109.03;45.87;;;;;;;7.00;72.05;101655.36;713479;1176;115469;-72
2022/03/09 20:18:10;;;;;;;39.15;19.25;;;;;;;6.99;72.37;101666.74;713219;1175;115897;-73
2022/03/09 20:33:12;;;;;;;58.30;25.47;;;;;;;6.95;73.00;101686.05;718574;1174;115189;-73
2022/03/09 20:48:15;;;;;;;32.57;16.77;;;;;;;6.78;72.66;101719.97;713317;1175;114914;-73
2022/03/09 21:03:17;;;;;;;31.57;15.10;;;;;;;6.09;72.15;101763.20;713032;1177;115781;-73
2022/03/09 21:18:24;;;;;;;20.90;11.10;;;;;;;5.73;71.88;101771.70;712958;1175;115074;-73
2022/03/09 21:33:26;;;;;;;19.63;11.27;;;;;;;5.37;72.56;101790.61;713325;1174;115812;-72
2022/03/09 21:48:29;;;;;;;21.53;11.68;;;;;;;5.10;71.85;101817.70;712997;1174;115723;-73
2022/03/09 22:03:31;;;;;;;16.43;9.83;;;;;;;5.20;71.71;101836.41;713193;1174;114884;-73
2022/03/09 22:18:33;;;;;;;10.55;7.13;;;;;;;4.86;69.69;101868.95;712990;1174;115612;-74
2022/03/09 22:33:36;;;;;;;15.00;7.35;;;;;;;4.54;68.24;101884.03;712868;1174;114525;-73
2022/03/09 22:48:38;;;;;;;9.03;4.70;;;;;;;4.43;66.45;101899.99;713019;1174;115706;-72
2022/03/09 23:03:40;;;;;;;10.00;5.75;;;;;;;4.39;66.23;101931.36;712758;1174;114821;-72
2022/03/09 23:18:42;;;;;;;10.50;4.47;;;;;;;3.92;64.16;101942.48;713240;1174;114869;-73
2022/03/09 23:33:44;;;;;;;9.80;5.77;;;;;;;3.43;64.42;101968.29;712952;1174;115271;-73
2022/03/09 23:48:46;;;;;;;12.50;6.23;;;;;;;3.12;63.35;101974.42;712863;1174;115552;-73
